Time;durP1;ratioP1;P1;durP2;ratioP2;P2;SDS_P1;SDS_P2;PMS_P1;PMS_P2;Temp;Humidity;BMP_temperature;BMP_pressure;BME280_temperature;BME280_humidity;BME280_pressure;Samples;Min_cycle;Max_cycle;Signal;HPM_P1;HPM_P2
2023/02/25 00:02:00;;;;;;;12.10;2.28;;;4.20;99.90;;;;;;5038185;28;20021;-75
2023/02/25 00:04:29;;;;;;;11.73;2.10;;;4.30;99.90;;;;;;5038966;28;20548;-77
2023/02/25 00:06:54;;;;;;;11.18;1.83;;;4.20;99.90;;;;;;5038165;28;20042;-73
2023/02/25 00:09:20;;;;;;;18.75;2.22;;;4.20;99.90;;;;;;5040197;28;20883;-72
2023/02/25 00:11:45;;;;;;;20.17;2.17;;;4.20;99.90;;;;;;5039057;28;20033;-74
2023/02/25 00:14:11;;;;;;;11.82;2.08;;;4.20;99.90;;;;;;5038714;28;20043;-74
2023/02/25 00:16:36;;;;;;;14.25;2.25;;;4.10;99.90;;;;;;5039820;28;20060;-71
2023/02/25 00:19:02;;;;;;;13.60;1.90;;;4.10;99.90;;;;;;5040265;28;20026;-72
2023/02/25 00:21:28;;;;;;;17.88;2.00;;;4.10;99.90;;;;;;5040231;28;20022;-71
2023/02/25 00:23:54;;;;;;;9.40;2.13;;;4.10;99.90;;;;;;5038685;28;20034;-69
2023/02/25 00:26:21;;;;;;;10.73;1.80;;;4.00;99.90;;;;;;5040034;28;20056;-73
2023/02/25 00:28:48;;;;;;;11.93;2.08;;;4.00;99.90;;;;;;5039547;28;20045;-74
2023/02/25 00:31:17;;;;;;;21.65;2.38;;;4.00;99.90;;;;;;5036443;28;20039;-75
2023/02/25 00:33:43;;;;;;;15.52;1.90;;;3.90;99.90;;;;;;5040263;28;20067;-73
2023/02/25 00:36:17;;;;;;;15.93;2.10;;;3.90;99.90;;;;;;5038089;28;20038;-72
2023/02/25 00:38:47;;;;;;;12.25;2.13;;;4.00;99.90;;;;;;5039288;28;20037;-71
2023/02/25 00:41:14;;;;;;;18.95;2.22;;;3.90;99.90;;;;;;5038292;28;20536;-73
2023/02/25 00:43:42;;;;;;;20.55;1.90;;;4.00;99.90;;;;;;5039517;28;20025;-71
2023/02/25 00:46:08;;;;;;;19.38;1.98;;;4.00;99.90;;;;;;5037420;28;20025;-70
2023/02/25 00:48:34;;;;;;;12.63;2.53;;;4.00;99.90;;;;;;5038387;28;20032;-73
2023/02/25 00:51:15;;;;;;;10.55;1.70;;;4.00;99.90;;;;;;5038127;28;20025;-71
2023/02/25 00:53:42;;;;;;;11.93;1.75;;;4.00;99.90;;;;;;5036928;28;20079;-74
2023/02/25 00:56:09;;;;;;;10.48;1.58;;;3.90;99.90;;;;;;5039741;28;20022;-71
2023/02/25 00:58:38;;;;;;;15.13;2.20;;;3.90;99.90;;;;;;5039332;28;20104;-72
2023/02/25 01:01:13;;;;;;;14.68;2.05;;;3.90;99.90;;;;;;5039450;28;21046;-77
2023/02/25 01:03:39;;;;;;;9.13;1.65;;;3.90;99.90;;;;;;5039402;28;20372;-76
2023/02/25 01:06:08;;;;;;;16.40;1.90;;;4.00;99.90;;;;;;5038572;28;21090;-74
2023/02/25 01:08:34;;;;;;;11.98;1.63;;;4.00;99.90;;;;;;5036979;28;20056;-76
2023/02/25 01:10:59;;;;;;;8.68;1.52;;;4.00;99.90;;;;;;5037321;28;20033;-73
2023/02/25 01:13:25;;;;;;;13.27;1.77;;;4.00;99.90;;;;;;5039776;28;20033;-73
2023/02/25 01:15:50;;;;;;;6.90;1.52;;;4.00;99.90;;;;;;5041530;28;20029;-72
2023/02/25 01:18:19;;;;;;;13.55;2.33;;;4.00;99.90;;;;;;5043258;28;20231;-75
2023/02/25 01:20:45;;;;;;;11.73;1.80;;;4.00;99.90;;;;;;5043242;28;20025;-74
2023/02/25 01:23:11;;;;;;;8.82;2.30;;;4.00;99.90;;;;;;5040855;28;20062;-75
2023/02/25 01:25:40;;;;;;;11.82;1.67;;;3.90;99.90;;;;;;5040817;28;20049;-76
2023/02/25 01:28:05;;;;;;;9.52;1.50;;;3.90;99.90;;;;;;5042825;28;20052;-77
2023/02/25 01:30:31;;;;;;;12.57;1.83;;;3.90;99.90;;;;;;5041774;28;20030;-73
2023/02/25 01:32:57;;;;;;;8.40;1.85;;;3.90;99.90;;;;;;5042393;28;20795;-74
2023/02/25 01:35:22;;;;;;;12.75;1.70;;;3.90;99.90;;;;;;5039929;28;20025;-73
2023/02/25 01:37:48;;;;;;;13.00;2.20;;;3.90;99.90;;;;;;5040647;28;20014;-73
2023/02/25 01:40:15;;;;;;;15.85;1.52;;;4.00;99.90;;;;;;5039690;28;20440;-74
2023/02/25 01:42:42;;;;;;;14.45;1.70;;;4.00;99.90;;;;;;5041318;28;20030;-73
2023/02/25 01:45:17;;;;;;;20.88;2.35;;;4.00;99.90;;;;;;5040974;28;20025;-73
2023/02/25 01:48:14;;;;;;;16.23;2.15;;;4.00;99.90;;;;;;5041896;28;20037;-75
2023/02/25 01:51:04;;;;;;;11.98;1.58;;;4.00;99.90;;;;;;5041699;28;20120;-72
2023/02/25 01:53:34;;;;;;;12.13;1.60;;;4.00;99.90;;;;;;5042293;28;20037;-72
2023/02/25 01:56:01;;;;;;;18.38;1.80;;;4.00;99.90;;;;;;5041241;28;20045;-71
2023/02/25 01:58:27;;;;;;;11.05;1.65;;;4.00;99.90;;;;;;5042086;28;20045;-73
2023/02/25 02:00:54;;;;;;;11.75;1.77;;;4.00;99.90;;;;;;5041475;28;20021;-69
2023/02/25 02:03:32;;;;;;;9.27;1.52;;;4.00;99.90;;;;;;5041413;28;20034;-72
2023/02/25 02:06:12;;;;;;;10.20;1.33;;;4.00;99.90;;;;;;5043160;28;20085;-73
2023/02/25 02:08:39;;;;;;;9.07;1.27;;;4.00;99.90;;;;;;5040965;28;20064;-73
2023/02/25 02:11:05;;;;;;;9.23;1.70;;;3.90;99.90;;;;;;5042421;28;20041;-72
2023/02/25 02:13:34;;;;;;;7.63;1.58;;;3.90;99.90;;;;;;5042499;28;20034;-72
2023/02/25 02:16:13;;;;;;;9.50;1.23;;;3.90;99.90;;;;;;5041133;28;20022;-74
2023/02/25 02:18:43;;;;;;;6.53;1.08;;;3.90;99.90;;;;;;5039942;28;20034;-74
2023/02/25 02:21:28;;;;;;;10.77;1.60;;;4.00;99.90;;;;;;5042385;28;20025;-72
2023/02/25 02:24:22;;;;;;;8.52;1.42;;;4.00;99.90;;;;;;5040873;28;20029;-72
2023/02/25 02:27:09;;;;;;;10.75;1.60;;;4.00;99.90;;;;;;5042035;28;20041;-75
2023/02/25 02:29:56;;;;;;;9.40;1.08;;;4.00;99.90;;;;;;5042299;28;20029;-74
2023/02/25 02:32:41;;;;;;;5.93;1.38;;;3.90;99.90;;;;;;5041969;28;20026;-74
2023/02/25 02:35:34;;;;;;;17.65;1.90;;;3.90;99.90;;;;;;5041966;28;20033;-73
2023/02/25 02:38:34;;;;;;;7.13;1.23;;;3.90;99.90;;;;;;5041484;28;20755;-72
2023/02/25 02:41:03;;;;;;;7.32;1.20;;;3.80;99.90;;;;;;5040382;28;20032;-73
2023/02/25 02:43:46;;;;;;;13.50;1.60;;;3.80;99.90;;;;;;5041757;28;20037;-71
2023/02/25 02:46:26;;;;;;;17.73;1.67;;;3.70;99.90;;;;;;5040688;28;20029;-73
2023/02/25 02:49:12;;;;;;;7.47;1.40;;;3.70;99.90;;;;;;5040547;28;20021;-73
2023/02/25 02:51:45;;;;;;;12.15;2.00;;;3.70;99.90;;;;;;5041700;28;20033;-72
2023/02/25 02:54:13;;;;;;;10.70;1.65;;;3.70;99.90;;;;;;5039137;28;20037;-71
2023/02/25 02:56:42;;;;;;;9.02;1.70;;;3.70;99.90;;;;;;5040049;28;20025;-72
2023/02/25 02:59:19;;;;;;;10.65;1.30;;;3.70;99.90;;;;;;5041311;28;20025;-73
2023/02/25 03:01:50;;;;;;;10.20;1.40;;;3.70;99.90;;;;;;5040477;28;20059;-73
2023/02/25 03:04:24;;;;;;;6.55;1.13;;;3.70;99.90;;;;;;5038868;28;20029;-74
2023/02/25 03:06:58;;;;;;;9.75;1.33;;;3.70;99.90;;;;;;5041359;28;20045;-71
2023/02/25 03:09:34;;;;;;;9.00;1.33;;;3.70;99.90;;;;;;5041047;28;20025;-73
2023/02/25 03:12:00;;;;;;;7.55;1.33;;;3.70;99.90;;;;;;5039638;28;20028;-73
2023/02/25 03:14:26;;;;;;;6.93;1.40;;;3.80;99.90;;;;;;5041374;28;20049;-70
2023/02/25 03:17:13;;;;;;;9.70;2.00;;;3.80;99.90;;;;;;5039717;28;20063;-71
2023/02/25 03:19:46;;;;;;;11.27;1.30;;;3.80;99.90;;;;;;5041149;28;20037;-71
2023/02/25 03:22:18;;;;;;;8.48;1.52;;;3.80;99.90;;;;;;5041502;28;20047;-74
2023/02/25 03:24:54;;;;;;;9.48;1.25;;;3.80;99.90;;;;;;5040689;28;20040;-72
2023/02/25 03:27:28;;;;;;;9.45;1.48;;;3.80;99.90;;;;;;5041273;28;20025;-74
2023/02/25 03:30:06;;;;;;;5.10;1.42;;;3.80;99.90;;;;;;5041027;28;20089;-71
2023/02/25 03:32:36;;;;;;;8.23;1.42;;;3.80;99.90;;;;;;5039550;28;20033;-71
2023/02/25 03:35:04;;;;;;;12.00;1.50;;;3.80;99.90;;;;;;5040350;28;20072;-70
2023/02/25 03:37:34;;;;;;;13.05;1.50;;;3.80;99.90;;;;;;5039576;28;20017;-72
2023/02/25 03:40:12;;;;;;;11.88;1.35;;;3.80;99.90;;;;;;5039966;28;20025;-70
2023/02/25 03:42:42;;;;;;;8.05;1.40;;;3.80;99.90;;;;;;5041622;28;20075;-72
2023/02/25 03:45:11;;;;;;;5.15;1.15;;;3.90;99.90;;;;;;5041179;28;20033;-71
2023/02/25 03:47:38;;;;;;;5.80;1.17;;;3.70;99.90;;;;;;5041428;28;20025;-71
2023/02/25 03:50:24;;;;;;;7.45;1.42;;;3.70;99.90;;;;;;5041296;28;20102;-70
2023/02/25 03:52:50;;;;;;;8.30;1.15;;;3.70;99.90;;;;;;5041532;28;20053;-71
2023/02/25 03:55:17;;;;;;;5.10;0.85;;;3.60;99.90;;;;;;5041332;28;20030;-71
2023/02/25 03:57:45;;;;;;;6.10;1.00;;;3.60;99.90;;;;;;5041835;28;20026;-70
2023/02/25 04:00:26;;;;;;;2.67;0.90;;;3.70;99.90;;;;;;5041442;28;20385;-72
2023/02/25 04:02:52;;;;;;;7.53;1.25;;;3.50;99.90;;;;;;5041084;28;20029;-72
2023/02/25 04:05:19;;;;;;;7.28;0.98;;;3.50;99.90;;;;;;5040407;28;20453;-71
2023/02/25 04:07:45;;;;;;;4.95;1.00;;;3.40;99.90;;;;;;5041332;28;20033;-73
2023/02/25 04:10:13;;;;;;;9.13;1.15;;;3.40;99.90;;;;;;5041095;28;20021;-73
2023/02/25 04:12:39;;;;;;;3.33;0.98;;;3.30;99.90;;;;;;5040057;28;20128;-72
2023/02/25 04:15:05;;;;;;;7.80;1.00;;;3.30;99.90;;;;;;5039883;28;20072;-72
2023/02/25 04:17:32;;;;;;;5.97;0.82;;;3.30;99.90;;;;;;5039669;28;20035;-72
2023/02/25 04:19:57;;;;;;;4.80;0.90;;;3.20;99.90;;;;;;5041323;28;20034;-72
2023/02/25 04:22:23;;;;;;;2.72;0.65;;;3.30;99.90;;;;;;5041271;28;20851;-71
2023/02/25 04:24:49;;;;;;;5.35;0.82;;;3.30;99.90;;;;;;5041025;28;20033;-72
2023/02/25 04:27:14;;;;;;;4.15;0.88;;;3.30;99.90;;;;;;5040201;28;20022;-72
2023/02/25 04:29:41;;;;;;;4.22;0.60;;;3.30;99.90;;;;;;5040006;28;20045;-72
2023/02/25 04:32:07;;;;;;;5.65;1.05;;;3.30;99.90;;;;;;5041141;28;20029;-71
2023/02/25 04:34:33;;;;;;;2.92;0.65;;;3.30;99.90;;;;;;5041437;28;20482;-71
2023/02/25 04:37:01;;;;;;;4.55;0.75;;;3.30;99.90;;;;;;5039871;28;20029;-70
2023/02/25 04:39:27;;;;;;;4.03;0.60;;;3.30;99.90;;;;;;5039733;28;20132;-70
2023/02/25 04:41:52;;;;;;;8.68;0.65;;;3.40;99.90;;;;;;5040884;28;20378;-70
2023/02/25 04:44:18;;;;;;;2.03;0.82;;;3.40;99.90;;;;;;5041411;28;20017;-71
2023/02/25 04:46:44;;;;;;;4.82;0.90;;;3.40;99.90;;;;;;5040817;28;20471;-72
2023/02/25 04:49:10;;;;;;;2.95;0.68;;;3.40;99.90;;;;;;5043877;28;20052;-73
2023/02/25 04:51:37;;;;;;;3.33;0.80;;;3.30;99.90;;;;;;5043413;28;20030;-71
2023/02/25 04:54:03;;;;;;;5.13;0.90;;;3.30;99.90;;;;;;5043130;28;20113;-72
2023/02/25 04:56:28;;;;;;;7.03;0.98;;;3.20;99.90;;;;;;5044567;28;20025;-72
2023/02/25 04:58:55;;;;;;;2.97;0.88;;;3.20;99.90;;;;;;5044821;28;20036;-72
2023/02/25 05:01:21;;;;;;;6.47;1.08;;;3.10;99.90;;;;;;5044788;28;20037;-73
2023/02/25 05:03:47;;;;;;;6.40;1.02;;;3.10;99.90;;;;;;5043291;28;20017;-71
2023/02/25 05:06:12;;;;;;;9.52;1.10;;;3.10;99.90;;;;;;5044841;28;20025;-71
2023/02/25 05:08:38;;;;;;;3.72;0.90;;;3.00;99.90;;;;;;5043334;28;20018;-72
2023/02/25 05:11:04;;;;;;;7.90;0.95;;;3.00;99.90;;;;;;5044260;28;21393;-71
2023/02/25 05:13:29;;;;;;;7.40;1.15;;;3.00;99.90;;;;;;5043126;28;20048;-74
2023/02/25 05:16:07;;;;;;;3.72;1.08;;;3.00;99.90;;;;;;5043385;28;20041;-71
2023/02/25 05:18:36;;;;;;;4.63;1.20;;;3.00;99.90;;;;;;5044541;28;20022;-73
2023/02/25 05:21:01;;;;;;;4.57;1.10;;;3.00;99.90;;;;;;5044051;28;20045;-74
2023/02/25 05:23:27;;;;;;;6.88;1.15;;;3.00;99.90;;;;;;5041401;28;20112;-72
2023/02/25 05:25:52;;;;;;;6.55;1.08;;;3.00;99.90;;;;;;5042138;28;20057;-73
2023/02/25 05:28:18;;;;;;;6.57;1.38;;;3.00;99.90;;;;;;5043238;28;20048;-72
2023/02/25 05:30:44;;;;;;;11.15;1.15;;;3.00;99.90;;;;;;5043061;28;20531;-73
2023/02/25 05:33:09;;;;;;;1.92;0.90;;;3.00;99.90;;;;;;5042884;28;20037;-73
2023/02/25 05:35:39;;;;;;;5.30;1.20;;;3.00;99.90;;;;;;5044047;28;20021;-75
2023/02/25 05:38:05;;;;;;;6.00;1.00;;;3.10;99.90;;;;;;5041500;28;20482;-73
2023/02/25 05:40:31;;;;;;;3.58;0.75;;;3.10;99.90;;;;;;5042471;28;20048;-73
2023/02/25 05:42:56;;;;;;;8.70;1.08;;;3.10;99.90;;;;;;5043747;28;20032;-72
2023/02/25 05:45:22;;;;;;;6.82;1.02;;;3.10;99.90;;;;;;5042784;28;20061;-70
2023/02/25 05:47:48;;;;;;;7.80;1.45;;;3.10;99.90;;;;;;5042877;28;20026;-72
2023/02/25 05:50:13;;;;;;;5.82;0.90;;;3.10;99.90;;;;;;5042014;28;20474;-70
2023/02/25 05:52:39;;;;;;;3.10;0.90;;;3.10;99.90;;;;;;5043515;28;20042;-71
2023/02/25 05:55:07;;;;;;;2.83;0.85;;;3.10;99.90;;;;;;5042068;28;20136;-71
2023/02/25 05:57:33;;;;;;;5.88;0.82;;;3.10;99.90;;;;;;5042159;28;20026;-70
2023/02/25 06:00:00;;;;;;;5.80;0.90;;;3.10;99.90;;;;;;5042431;28;20029;-69
2023/02/25 06:02:26;;;;;;;4.53;0.75;;;3.10;99.90;;;;;;5041601;28;20021;-71
2023/02/25 06:04:53;;;;;;;5.90;0.90;;;3.10;99.90;;;;;;5042092;28;20072;-70
2023/02/25 06:07:18;;;;;;;4.38;0.88;;;3.10;99.90;;;;;;5043484;28;20018;-70
2023/02/25 06:09:44;;;;;;;5.40;0.90;;;3.10;99.90;;;;;;5043737;28;20032;-71
2023/02/25 06:12:10;;;;;;;8.52;1.45;;;3.20;99.90;;;;;;5041121;28;20025;-71
2023/02/25 06:14:35;;;;;;;3.17;0.90;;;3.20;99.90;;;;;;5041316;28;20045;-71
2023/02/25 06:17:01;;;;;;;5.50;0.73;;;3.20;99.90;;;;;;5042065;28;20205;-70
2023/02/25 06:19:27;;;;;;;4.18;0.80;;;3.20;99.90;;;;;;5041421;28;20030;-72
2023/02/25 06:21:53;;;;;;;5.78;0.80;;;3.20;99.90;;;;;;5042870;28;20073;-72
2023/02/25 06:24:20;;;;;;;4.35;1.00;;;3.20;99.90;;;;;;5043700;28;20416;-70
2023/02/25 06:26:46;;;;;;;7.18;0.85;;;3.20;99.90;;;;;;5041554;28;20050;-71
2023/02/25 06:29:12;;;;;;;6.90;0.80;;;3.20;99.90;;;;;;5039129;28;20083;-70
2023/02/25 06:31:38;;;;;;;8.85;1.38;;;3.20;99.90;;;;;;5042971;28;20040;-71
2023/02/25 06:34:04;;;;;;;7.50;0.77;;;3.10;99.90;;;;;;5040269;28;20172;-70
2023/02/25 06:36:30;;;;;;;4.22;1.00;;;3.20;99.90;;;;;;5041392;28;20097;-71
2023/02/25 06:38:56;;;;;;;7.53;0.90;;;3.20;99.90;;;;;;5042158;28;20025;-72
2023/02/25 06:41:23;;;;;;;7.72;1.13;;;3.20;99.90;;;;;;5043606;28;20387;-71
2023/02/25 06:43:50;;;;;;;14.18;1.48;;;3.20;99.90;;;;;;5043127;28;20079;-71
2023/02/25 06:46:19;;;;;;;8.27;0.88;;;3.20;99.90;;;;;;5042064;28;20017;-71
2023/02/25 06:48:44;;;;;;;6.82;0.82;;;3.20;99.90;;;;;;5042796;28;20032;-72
2023/02/25 06:51:11;;;;;;;8.80;0.90;;;3.20;99.90;;;;;;5039762;28;20057;-70
2023/02/25 06:53:38;;;;;;;5.00;0.88;;;3.20;99.90;;;;;;5041291;28;20052;-71
2023/02/25 06:56:07;;;;;;;9.18;1.40;;;3.20;99.90;;;;;;5041127;28;20026;-71
2023/02/25 06:58:32;;;;;;;7.90;1.40;;;3.20;99.90;;;;;;5038774;28;20029;-69
2023/02/25 07:00:58;;;;;;;6.68;1.10;;;3.10;99.90;;;;;;5041203;28;20532;-70
2023/02/25 07:03:24;;;;;;;6.78;1.20;;;3.10;99.90;;;;;;5039643;28;20033;-72
2023/02/25 07:05:49;;;;;;;3.58;1.05;;;3.00;99.90;;;;;;5040961;28;20075;-71
2023/02/25 07:08:15;;;;;;;6.15;1.00;;;3.10;99.90;;;;;;5039793;28;20117;-71
2023/02/25 07:10:40;;;;;;;9.35;1.38;;;2.90;99.90;;;;;;5039010;28;20675;-70
2023/02/25 07:13:07;;;;;;;4.55;1.08;;;2.90;99.90;;;;;;5041405;28;20050;-71
2023/02/25 07:15:34;;;;;;;6.25;0.93;;;2.80;99.90;;;;;;5042369;28;20030;-70
2023/02/25 07:17:59;;;;;;;3.92;0.98;;;2.80;99.90;;;;;;5041348;28;20463;-72
2023/02/25 07:20:25;;;;;;;9.98;1.25;;;2.70;99.90;;;;;;5040689;28;20100;-70
2023/02/25 07:22:50;;;;;;;4.95;1.13;;;2.70;99.90;;;;;;5039449;28;20063;-71
2023/02/25 07:25:16;;;;;;;7.07;1.73;;;2.60;99.90;;;;;;5041328;28;20060;-70
2023/02/25 07:27:42;;;;;;;4.22;1.00;;;2.60;99.90;;;;;;5040598;28;20014;-70
2023/02/25 07:30:12;;;;;;;6.90;1.00;;;2.60;99.90;;;;;;5042193;28;20474;-70
2023/02/25 07:32:38;;;;;;;8.32;0.95;;;2.50;99.90;;;;;;5042267;28;20042;-71
2023/02/25 07:35:04;;;;;;;7.32;1.40;;;2.40;99.90;;;;;;5041075;28;20021;-70
2023/02/25 07:37:30;;;;;;;6.15;1.13;;;2.40;99.90;;;;;;5039670;28;20036;-70
2023/02/25 07:39:58;;;;;;;7.38;1.23;;;2.40;99.90;;;;;;5042428;28;20017;-70
2023/02/25 07:42:27;;;;;;;3.90;1.10;;;2.50;99.90;;;;;;5042032;28;20014;-71
2023/02/25 07:44:53;;;;;;;5.57;1.38;;;2.40;99.90;;;;;;5041973;28;20018;-71
2023/02/25 07:47:20;;;;;;;8.13;1.63;;;2.40;99.90;;;;;;5040815;28;20029;-70
2023/02/25 07:49:46;;;;;;;5.00;0.93;;;2.50;99.90;;;;;;5041412;28;20030;-69
2023/02/25 07:52:12;;;;;;;10.88;1.50;;;2.50;99.90;;;;;;5042224;28;20029;-69
2023/02/25 07:54:37;;;;;;;4.75;1.20;;;2.50;99.90;;;;;;5040698;28;20029;-69
2023/02/25 07:57:03;;;;;;;5.30;1.13;;;2.50;99.90;;;;;;5041989;28;20037;-69
2023/02/25 07:59:32;;;;;;;6.80;1.58;;;2.60;99.90;;;;;;5041948;28;20018;-68
2023/02/25 08:01:58;;;;;;;6.38;1.40;;;2.70;99.90;;;;;;5041507;28;20085;-70
2023/02/25 08:04:24;;;;;;;3.55;1.10;;;2.70;99.90;;;;;;5042075;28;20049;-70
2023/02/25 08:06:50;;;;;;;8.32;1.38;;;2.80;99.90;;;;;;5039480;28;20081;-71
2023/02/25 08:09:16;;;;;;;9.95;1.15;;;2.80;99.90;;;;;;5040595;28;20110;-72
2023/02/25 08:11:43;;;;;;;10.73;1.67;;;2.80;99.90;;;;;;5041684;28;20040;-69
2023/02/25 08:14:09;;;;;;;8.95;1.10;;;2.80;99.90;;;;;;5040831;28;20104;-70
2023/02/25 08:16:36;;;;;;;5.32;0.85;;;2.70;99.90;;;;;;5040343;28;20075;-71
2023/02/25 08:19:02;;;;;;;5.57;0.98;;;2.80;99.90;;;;;;5041263;28;20013;-72
2023/02/25 08:21:29;;;;;;;5.68;1.35;;;2.90;99.90;;;;;;5041374;28;20022;-70
2023/02/25 08:23:55;;;;;;;7.72;1.05;;;3.20;99.90;;;;;;5041835;28;20025;-70
2023/02/25 08:26:22;;;;;;;6.22;0.98;;;3.50;99.90;;;;;;5039970;28;20060;-68
2023/02/25 08:28:49;;;;;;;13.90;1.58;;;3.90;99.90;;;;;;5041582;28;20030;-70
2023/02/25 08:31:16;;;;;;;7.25;1.15;;;4.20;99.90;;;;;;5041451;28;20018;-70
2023/02/25 08:33:48;;;;;;;6.78;1.00;;;4.30;99.90;;;;;;5031778;28;20033;-69
2023/02/25 08:36:29;;;;;;;7.22;0.98;;;4.30;99.90;;;;;;5039652;28;20040;-71
2023/02/25 08:38:56;;;;;;;9.25;0.93;;;4.30;99.90;;;;;;5039196;28;20501;-71
2023/02/25 08:41:24;;;;;;;8.15;1.13;;;4.50;99.90;;;;;;5037974;28;20491;-71
2023/02/25 08:43:54;;;;;;;3.75;0.85;;;4.60;99.90;;;;;;5036917;28;20033;-70
2023/02/25 08:46:25;;;;;;;4.28;0.60;;;4.80;99.90;;;;;;5037320;28;20461;-69
2023/02/25 08:48:52;;;;;;;5.40;1.67;;;5.00;99.90;;;;;;5038688;28;20033;-69
2023/02/25 08:51:19;;;;;;;4.72;1.17;;;5.20;99.90;;;;;;5039519;28;20028;-71
2023/02/25 08:53:45;;;;;;;9.15;1.05;;;5.20;99.90;;;;;;5040002;28;20029;-69
2023/02/25 08:56:13;;;;;;;3.60;1.00;;;5.30;99.90;;;;;;5041092;28;20033;-70
2023/02/25 08:58:39;;;;;;;3.72;0.90;;;5.40;99.90;;;;;;5040465;28;20900;-70
2023/02/25 09:01:07;;;;;;;3.35;0.85;;;5.40;99.90;;;;;;5038046;28;20037;-70
2023/02/25 09:03:34;;;;;;;3.90;0.90;;;5.20;99.90;;;;;;5039540;28;20021;-70
2023/02/25 09:05:59;;;;;;;4.57;0.90;;;5.20;99.90;;;;;;5040028;28;20630;-71
2023/02/25 09:08:27;;;;;;;3.35;0.73;;;5.10;99.90;;;;;;5039758;28;20014;-69
2023/02/25 09:10:53;;;;;;;7.18;1.30;;;5.00;99.90;;;;;;5041247;28;20112;-70
2023/02/25 09:13:18;;;;;;;5.70;1.20;;;4.80;99.90;;;;;;5039133;28;20465;-70
2023/02/25 09:15:44;;;;;;;6.28;1.05;;;4.60;99.90;;;;;;5041490;28;20017;-69
2023/02/25 09:18:10;;;;;;;4.65;1.10;;;4.40;99.90;;;;;;5039795;28;20027;-68
2023/02/25 09:20:36;;;;;;;6.07;0.80;;;4.10;99.90;;;;;;5041112;28;20038;-70
2023/02/25 09:23:01;;;;;;;7.40;2.33;;;4.10;99.90;;;;;;5040936;28;20113;-69
2023/02/25 09:25:28;;;;;;;5.82;0.90;;;4.10;99.90;;;;;;5040646;28;20064;-69
2023/02/25 09:27:53;;;;;;;4.40;0.93;;;4.30;99.90;;;;;;5039884;28;20049;-70
2023/02/25 09:30:19;;;;;;;3.78;0.65;;;4.60;99.90;;;;;;5039895;28;20026;-69
2023/02/25 09:32:45;;;;;;;5.38;0.70;;;4.80;99.90;;;;;;5041138;28;20048;-69
2023/02/25 09:35:11;;;;;;;4.72;1.10;;;5.20;99.90;;;;;;5041742;28;20033;-68
2023/02/25 09:37:37;;;;;;;5.40;1.10;;;5.60;99.90;;;;;;5041510;28;20033;-70
2023/02/25 09:40:04;;;;;;;9.10;0.77;;;6.10;99.90;;;;;;5043569;28;20034;-69
2023/02/25 09:42:56;;;;;;;7.00;0.82;;;6.10;99.90;;;;;;5044136;28;20024;-70
2023/02/25 09:45:23;;;;;;;4.63;0.85;;;6.10;99.90;;;;;;5044484;28;20057;-70
2023/02/25 09:47:53;;;;;;;2.38;0.65;;;5.90;99.90;;;;;;5043063;28;20093;-71
2023/02/25 09:50:31;;;;;;;2.05;0.50;;;5.70;99.90;;;;;;5058345;28;20030;-69
2023/02/25 09:53:20;;;;;;;4.07;0.77;;;5.50;99.90;;;;;;5042721;28;20049;-68
2023/02/25 09:55:49;;;;;;;3.83;0.82;;;5.60;99.90;;;;;;5044350;28;20018;-69
2023/02/25 09:58:26;;;;;;;4.18;0.70;;;5.60;99.90;;;;;;5044008;28;20025;-70
2023/02/25 10:01:05;;;;;;;4.03;0.80;;;5.70;99.90;;;;;;5043113;28;20120;-70
2023/02/25 10:03:59;;;;;;;4.28;0.90;;;5.70;99.90;;;;;;5042938;28;20033;-71
2023/02/25 10:06:28;;;;;;;4.63;0.80;;;5.90;99.90;;;;;;5042981;28;20029;-69
2023/02/25 10:09:02;;;;;;;2.80;0.80;;;6.00;99.90;;;;;;5042901;28;20397;-71
2023/02/25 10:11:47;;;;;;;4.87;1.00;;;6.20;99.90;;;;;;5042490;28;20505;-70
2023/02/25 10:14:39;;;;;;;4.47;0.73;;;6.30;99.90;;;;;;5040139;28;21553;-69
2023/02/25 10:17:43;;;;;;;4.20;0.68;;;6.50;99.90;;;;;;5040325;28;20038;-70
2023/02/25 10:20:33;;;;;;;4.82;0.52;;;6.40;99.90;;;;;;5041359;28;20056;-69
2023/02/25 10:23:08;;;;;;;6.78;0.93;;;6.20;99.90;;;;;;5043856;28;20024;-70
2023/02/25 10:25:38;;;;;;;3.78;0.90;;;6.20;99.90;;;;;;5043394;28;20463;-72
2023/02/25 10:28:11;;;;;;;4.20;1.20;;;6.30;99.90;;;;;;5038396;28;20041;-69
2023/02/25 10:30:42;;;;;;;8.38;1.60;;;6.30;99.90;;;;;;5040240;28;20479;-69
2023/02/25 10:33:33;;;;;;;7.93;1.63;;;6.60;99.90;;;;;;5041599;28;20097;-70
2023/02/25 10:36:07;;;;;;;3.45;1.42;;;6.90;99.90;;;;;;5043187;28;20033;-70
2023/02/25 10:38:35;;;;;;;3.35;1.02;;;7.10;99.90;;;;;;5042804;28;20029;-69
2023/02/25 10:41:03;;;;;;;5.32;0.70;;;7.30;99.90;;;;;;5039888;28;20033;-69
2023/02/25 10:43:29;;;;;;;5.72;0.90;;;7.70;99.90;;;;;;5038882;28;20037;-70
2023/02/25 10:46:09;;;;;;;4.63;0.88;;;8.10;99.90;;;;;;5039366;28;20033;-70
2023/02/25 10:48:35;;;;;;;2.00;0.75;;;8.40;99.90;;;;;;5041954;28;20041;-69
2023/02/25 10:51:11;;;;;;;5.10;0.93;;;8.70;99.90;;;;;;5039801;28;20044;-69
2023/02/25 10:53:38;;;;;;;7.03;1.00;;;8.50;99.90;;;;;;5042247;28;20041;-70
2023/02/25 10:56:04;;;;;;;5.80;1.20;;;8.10;99.90;;;;;;5040171;28;20121;-71
2023/02/25 10:58:43;;;;;;;6.80;0.75;;;7.80;99.90;;;;;;5038987;28;20119;-72
2023/02/25 11:01:22;;;;;;;7.13;1.33;;;7.40;99.90;;;;;;5041330;28;20060;-72
2023/02/25 11:04:00;;;;;;;6.05;1.10;;;7.20;99.90;;;;;;5041183;28;20032;-70
2023/02/25 11:06:29;;;;;;;6.03;1.63;;;7.20;99.90;;;;;;5038917;28;20034;-73
2023/02/25 11:08:57;;;;;;;4.15;1.00;;;7.40;99.90;;;;;;5041575;28;20026;-71
2023/02/25 11:11:27;;;;;;;2.45;0.90;;;7.90;99.90;;;;;;5041112;28;20057;-71
2023/02/25 11:13:59;;;;;;;2.78;0.95;;;8.00;99.90;;;;;;5039915;28;20043;-70
2023/02/25 11:16:27;;;;;;;4.70;0.82;;;8.30;99.90;;;;;;5038557;28;20041;-72
2023/02/25 11:18:57;;;;;;;3.40;0.90;;;8.90;99.90;;;;;;5041316;28;20040;-69
2023/02/25 11:21:33;;;;;;;4.63;0.70;;;9.00;99.90;;;;;;5042468;28;20041;-69
2023/02/25 11:24:02;;;;;;;4.13;0.88;;;8.70;99.90;;;;;;5039988;28;20044;-71
2023/02/25 11:26:33;;;;;;;4.22;1.20;;;9.00;99.90;;;;;;5037182;28;20057;-69
2023/02/25 11:29:13;;;;;;;4.25;0.80;;;9.20;99.90;;;;;;5040433;28;20040;-70
2023/02/25 11:31:40;;;;;;;4.35;0.73;;;9.00;99.90;;;;;;5047876;28;20121;-68
2023/02/25 11:34:15;;;;;;;4.35;0.85;;;8.80;99.90;;;;;;5039848;28;20102;-69
2023/02/25 11:36:42;;;;;;;4.07;0.77;;;8.90;99.90;;;;;;5040178;28;20478;-68
2023/02/25 11:39:25;;;;;;;3.47;0.93;;;9.10;99.90;;;;;;5030217;28;20112;-73
2023/02/25 11:42:00;;;;;;;3.83;0.90;;;9.00;99.90;;;;;;5033732;28;20059;-72
2023/02/25 11:44:45;;;;;;;5.35;0.90;;;8.90;99.90;;;;;;5035642;28;20041;-70
2023/02/25 11:47:36;;;;;;;2.63;0.73;;;9.30;99.90;;;;;;5037823;28;20044;-71
2023/02/25 11:50:18;;;;;;;7.88;1.40;;;9.60;99.90;;;;;;5036608;28;20030;-70
2023/02/25 11:52:52;;;;;;;5.55;1.20;;;9.00;99.90;;;;;;5034829;28;20052;-69
2023/02/25 11:55:29;;;;;;;4.60;1.50;;;8.50;99.90;;;;;;5034433;28;20029;-70
2023/02/25 11:58:24;;;;;;;3.25;1.10;;;8.10;99.90;;;;;;5035163;28;20087;-69
2023/02/25 12:01:05;;;;;;;5.70;1.35;;;8.50;99.90;;;;;;5035694;28;20052;-70
2023/02/25 12:03:34;;;;;;;4.75;1.20;;;8.80;99.90;;;;;;5039311;28;20128;-68
2023/02/25 12:06:08;;;;;;;4.03;1.10;;;8.60;99.90;;;;;;5037693;28;20536;-69
2023/02/25 12:08:55;;;;;;;8.93;3.45;;;8.70;99.90;;;;;;5040528;28;20025;-68
2023/02/25 12:11:49;;;;;;;8.27;2.15;;;9.30;99.90;;;;;;5039516;28;20025;-69
2023/02/25 12:14:58;;;;;;;6.65;1.45;;;9.50;99.90;;;;;;5040554;28;20076;-70
2023/02/25 12:17:52;;;;;;;5.78;1.90;;;10.20;99.90;;;;;;5039450;28;20057;-71
2023/02/25 12:20:50;;;;;;;3.88;1.35;;;10.90;99.90;;;;;;5039105;28;20097;-71
2023/02/25 12:23:48;;;;;;;4.72;1.30;;;10.60;99.90;;;;;;5040036;28;20085;-70
2023/02/25 12:27:02;;;;;;;4.72;1.33;;;9.70;99.90;;;;;;5038683;28;20042;-68
2023/02/25 12:30:01;;;;;;;3.40;1.33;;;9.50;99.90;;;;;;5017929;28;20032;-71
2023/02/25 12:32:44;;;;;;;2.95;1.20;;;9.90;99.90;;;;;;5040894;28;20025;-69
2023/02/25 12:35:44;;;;;;;4.85;1.23;;;9.50;99.90;;;;;;5041085;28;20013;-70
2023/02/25 12:38:45;;;;;;;5.25;1.30;;;9.80;99.90;;;;;;5041404;28;20025;-69
2023/02/25 12:41:55;;;;;;;5.97;1.52;;;10.40;99.90;;;;;;5040241;28;20463;-70
2023/02/25 12:44:58;;;;;;;7.45;1.15;;;10.90;99.90;;;;;;5041182;28;20034;-71
2023/02/25 12:47:31;;;;;;;5.13;0.98;;;10.70;99.90;;;;;;5039718;28;20025;-72
2023/02/25 12:50:41;;;;;;;3.22;1.23;;;10.70;99.90;;;;;;5035383;28;20092;-69
2023/02/25 12:53:17;;;;;;;3.83;1.23;;;10.80;99.90;;;;;;5036748;28;20141;-69
2023/02/25 12:55:59;;;;;;;4.75;1.17;;;10.90;99.90;;;;;;5036743;28;20033;-71
2023/02/25 12:58:41;;;;;;;7.70;1.00;;;10.50;99.90;;;;;;5037624;28;21524;-68
2023/02/25 13:01:52;;;;;;;4.18;1.02;;;10.30;99.90;;;;;;5040395;28;20038;-68
2023/02/25 13:04:38;;;;;;;4.45;1.20;;;10.50;99.90;;;;;;5040747;28;20026;-72
2023/02/25 13:07:38;;;;;;;4.10;1.40;;;11.00;99.90;;;;;;5040116;28;20022;-72
2023/02/25 13:10:10;;;;;;;3.38;1.15;;;11.40;99.90;;;;;;5034677;28;20052;-69
2023/02/25 13:12:56;;;;;;;3.33;1.27;;;11.40;99.90;;;;;;5042545;28;20120;-68
2023/02/25 13:15:45;;;;;;;4.88;0.98;;;11.20;99.90;;;;;;5042479;28;20385;-70
2023/02/25 13:18:30;;;;;;;4.65;1.13;;;11.20;99.90;;;;;;5044060;28;20040;-69
2023/02/25 13:21:33;;;;;;;5.05;1.35;;;10.80;99.90;;;;;;5041999;28;20093;-70